createdAt,value
2018-07-22T00:02:22.937Z,94854.83
2018-07-22T00:04:49.305Z,94855.09
2018-07-22T00:07:15.705Z,94853.94
2018-07-22T00:09:42.043Z,94852.48
2018-07-22T00:12:08.481Z,94848.48
2018-07-22T00:14:34.876Z,94848.19
2018-07-22T00:17:01.267Z,94854.64
2018-07-22T00:19:27.724Z,94852.48
2018-07-22T00:21:54.099Z,94845.84
2018-07-22T00:24:20.445Z,94847.90
2018-07-22T00:26:46.775Z,94844.70
2018-07-22T00:29:13.217Z,94846.31
2018-07-22T00:31:39.552Z,94849.77
2018-07-22T00:34:05.969Z,94846.48
2018-07-22T00:36:32.341Z,94846.20
2018-07-22T00:38:58.712Z,94850.69
2018-07-22T00:41:25.045Z,94853.70
2018-07-22T00:43:51.415Z,94853.49
2018-07-22T00:46:17.811Z,94848.89
2018-07-22T00:48:44.187Z,94851.59
2018-07-22T00:51:10.545Z,94856.69
2018-07-22T00:53:36.877Z,94845.30
2018-07-22T00:56:03.281Z,94848.13
2018-07-22T00:58:29.684Z,94841.27
2018-07-22T01:00:56.017Z,94839.82
2018-07-22T01:03:22.403Z,94843.28
2018-07-22T01:05:48.761Z,94840.20
2018-07-22T01:08:15.088Z,94844.73
2018-07-22T01:10:41.421Z,94839.39
2018-07-22T01:13:07.752Z,94836.52
2018-07-22T01:15:34.134Z,94834.48
2018-07-22T01:18:00.502Z,94836.34
2018-07-22T01:20:26.880Z,94839.47
2018-07-22T01:22:53.243Z,94842.88
2018-07-22T01:25:19.617Z,94845.88
2018-07-22T01:27:46.102Z,94842.11
2018-07-22T01:30:12.445Z,94836.94
2018-07-22T01:32:38.774Z,94834.45
2018-07-22T01:35:05.436Z,94833.28
2018-07-22T01:37:31.954Z,94834.56
2018-07-22T01:39:58.295Z,94839.94
2018-07-22T01:42:24.654Z,94834.44
2018-07-22T01:44:50.971Z,94834.94
2018-07-22T01:47:17.343Z,94834.58
2018-07-22T01:49:43.675Z,94834.88
2018-07-22T01:52:10.071Z,94833.34
2018-07-22T01:54:36.588Z,94842.87
2018-07-22T01:57:02.942Z,94835.13
2018-07-22T01:59:29.268Z,94829.84
2018-07-22T02:01:55.601Z,94832.92
2018-07-22T02:04:21.934Z,94821.66
2018-07-22T02:06:48.348Z,94821.78
2018-07-22T02:09:14.753Z,94824.52
2018-07-22T02:11:41.130Z,94823.73
2018-07-22T02:14:07.512Z,94820.80
2018-07-22T02:16:34.074Z,94819.87
2018-07-22T02:19:00.473Z,94822.91
2018-07-22T02:21:26.837Z,94819.31
2018-07-22T02:23:53.274Z,94811.42
2018-07-22T02:26:19.712Z,94817.34
2018-07-22T02:28:46.083Z,94826.43
2018-07-22T02:31:12.515Z,94820.59
2018-07-22T02:33:38.838Z,94821.53
2018-07-22T02:36:05.228Z,94814.88
2018-07-22T02:38:31.565Z,94817.02
2018-07-22T02:40:57.894Z,94814.75
2018-07-22T02:43:24.228Z,94810.30
2018-07-22T02:45:50.615Z,94812.58
2018-07-22T02:48:16.952Z,94810.15
2018-07-22T02:50:43.271Z,94813.81
2018-07-22T02:53:09.633Z,94818.15
2018-07-22T02:55:35.960Z,94819.50
2018-07-22T02:58:02.331Z,94817.53
2018-07-22T03:00:28.663Z,94818.47
2018-07-22T03:02:54.997Z,94816.30
2018-07-22T03:05:21.364Z,94817.68
2018-07-22T03:07:47.739Z,94816.50
2018-07-22T03:10:14.078Z,94816.15
2018-07-22T03:12:40.480Z,94817.84
2018-07-22T03:15:06.834Z,94811.61
2018-07-22T03:17:33.174Z,94816.23
2018-07-22T03:19:59.549Z,94810.63
2018-07-22T03:22:25.878Z,94815.57
2018-07-22T03:24:52.268Z,94811.04
2018-07-22T03:27:18.608Z,94809.34
2018-07-22T03:29:45.001Z,94807.59
2018-07-22T03:32:11.347Z,94815.64
2018-07-22T03:34:37.679Z,94818.05
2018-07-22T03:37:04.105Z,94810.57
2018-07-22T03:39:30.443Z,94814.59
2018-07-22T03:41:56.835Z,94816.86
2018-07-22T03:44:23.190Z,94810.67
2018-07-22T03:46:49.540Z,94801.66
2018-07-22T03:49:15.927Z,94807.38
2018-07-22T03:51:42.290Z,94802.78
2018-07-22T03:54:08.636Z,94807.06
2018-07-22T03:56:34.982Z,94803.96
2018-07-22T03:59:01.323Z,94799.21
2018-07-22T04:01:27.690Z,94800.30
2018-07-22T04:03:54.031Z,94805.01
2018-07-22T04:06:20.417Z,94802.82
2018-07-22T04:08:46.756Z,94810.02
2018-07-22T04:11:13.083Z,94804.77
2018-07-22T04:13:39.457Z,94809.53
2018-07-22T04:16:05.915Z,94805.53
2018-07-22T04:18:32.340Z,94810.11
2018-07-22T04:20:58.695Z,94803.67
2018-07-22T04:23:25.044Z,94802.52
2018-07-22T04:25:51.435Z,94799.89
2018-07-22T04:28:17.758Z,94803.39
2018-07-22T04:30:44.122Z,94803.84
2018-07-22T04:33:10.448Z,94800.32
2018-07-22T04:35:36.778Z,94799.14
2018-07-22T04:38:03.126Z,94797.77
2018-07-22T04:40:29.500Z,94792.23
2018-07-22T04:42:55.911Z,94794.80
2018-07-22T04:45:22.306Z,94788.88
2018-07-22T04:47:48.634Z,94786.20
2018-07-22T04:50:14.994Z,94787.98
2018-07-22T04:52:41.355Z,94780.39
2018-07-22T04:55:07.698Z,94784.77
2018-07-22T04:57:34.068Z,94789.95
2018-07-22T05:00:00.419Z,94784.91
2018-07-22T05:02:26.790Z,94773.89
2018-07-22T05:04:53.103Z,94777.15
2018-07-22T05:07:19.437Z,94779.86
2018-07-22T05:09:45.809Z,94781.43
2018-07-22T05:12:12.145Z,94777.57
2018-07-22T05:14:38.553Z,94777.53
2018-07-22T05:17:04.926Z,94783.31
2018-07-22T05:19:31.270Z,94778.77
2018-07-22T05:21:57.644Z,94781.37
2018-07-22T05:24:24.034Z,94779.98
2018-07-22T05:26:50.405Z,94782.52
2018-07-22T05:29:16.733Z,94784.78
2018-07-22T05:31:43.091Z,94788.15
2018-07-22T05:34:09.466Z,94791.75
2018-07-22T05:36:35.890Z,94791.09
2018-07-22T05:39:02.300Z,94785.31
2018-07-22T05:41:28.632Z,94777.77
2018-07-22T05:43:55.045Z,94783.89
2018-07-22T05:46:21.563Z,94783.20
2018-07-22T05:48:47.916Z,94785.83
2018-07-22T05:51:14.318Z,94791.42
2018-07-22T05:53:40.687Z,94792.16
2018-07-22T05:56:07.063Z,94784.47
2018-07-22T05:58:33.457Z,94787.95
2018-07-22T06:00:59.813Z,94784.67
2018-07-22T06:03:26.171Z,94793.51
2018-07-22T06:05:52.509Z,94792.56
2018-07-22T06:08:18.914Z,94794.43
2018-07-22T06:10:45.310Z,94783.75
2018-07-22T06:13:11.663Z,94787.19
2018-07-22T06:15:37.997Z,94784.07
2018-07-22T06:18:04.468Z,94787.80
2018-07-22T06:20:30.846Z,94780.26
2018-07-22T06:22:57.203Z,94778.47
2018-07-22T06:25:23.555Z,94777.23
2018-07-22T06:27:49.932Z,94778.94
2018-07-22T06:30:16.268Z,94774.84
2018-07-22T06:32:42.612Z,94766.30
2018-07-22T06:35:09.078Z,94762.67
2018-07-22T06:37:35.382Z,94760.42
2018-07-22T06:40:01.709Z,94759.45
2018-07-22T06:42:28.049Z,94756.27
2018-07-22T06:44:54.540Z,94756.73
2018-07-22T06:47:20.908Z,94753.96
2018-07-22T06:49:47.230Z,94757.37
2018-07-22T06:52:13.604Z,94757.27
2018-07-22T06:54:39.942Z,94754.81
2018-07-22T06:57:06.328Z,94759.92
2018-07-22T06:59:32.724Z,94756.23
2018-07-22T07:01:59.101Z,94756.45
2018-07-22T07:04:25.495Z,94755.00
2018-07-22T07:06:51.868Z,94750.48
2018-07-22T07:09:18.251Z,94747.43
2018-07-22T07:11:44.615Z,94757.24
2018-07-22T07:14:10.999Z,94743.61
2018-07-22T07:16:37.383Z,94735.56
2018-07-22T07:19:03.734Z,94734.55
2018-07-22T07:21:30.088Z,94733.38
2018-07-22T07:23:56.418Z,94743.04
2018-07-22T07:26:22.776Z,94741.14
2018-07-22T07:28:49.179Z,94748.33
2018-07-22T07:31:15.560Z,94751.58
2018-07-22T07:33:41.975Z,94747.28
2018-07-22T07:36:08.302Z,94745.64
2018-07-22T07:38:34.677Z,94742.70
2018-07-22T07:41:01.061Z,94739.92
2018-07-22T07:43:27.445Z,94747.91
2018-07-22T07:45:53.774Z,94740.80
2018-07-22T07:48:20.097Z,94741.97
2018-07-22T07:50:46.434Z,94740.92
2018-07-22T07:53:12.783Z,94737.86
2018-07-22T07:55:39.152Z,94737.22
2018-07-22T07:58:05.486Z,94739.62
2018-07-22T08:00:31.847Z,94725.63
2018-07-22T08:02:58.192Z,94728.22
2018-07-22T08:05:24.657Z,94726.29
2018-07-22T08:07:51.119Z,94723.57
2018-07-22T08:10:17.469Z,94721.23
2018-07-22T08:12:43.803Z,94715.92
2018-07-22T08:15:10.135Z,94714.09
2018-07-22T08:17:36.541Z,94707.68
2018-07-22T08:20:02.886Z,94706.32
2018-07-22T08:22:29.226Z,94701.52
2018-07-22T08:24:55.572Z,94699.69
2018-07-22T08:27:21.983Z,94688.09
2018-07-22T08:29:48.360Z,94692.27
2018-07-22T08:32:14.719Z,94700.84
2018-07-22T08:34:41.101Z,94693.39
2018-07-22T08:37:07.505Z,94699.80
2018-07-22T08:39:33.890Z,94696.67
2018-07-22T08:42:00.254Z,94696.09
2018-07-22T08:44:26.598Z,94690.03
2018-07-22T08:46:52.919Z,94680.97
2018-07-22T08:49:19.264Z,94680.56
2018-07-22T08:51:45.676Z,94675.25
2018-07-22T08:54:12.098Z,94673.00
2018-07-22T08:56:38.444Z,94670.95
2018-07-22T08:59:04.787Z,94665.37
2018-07-22T09:01:31.144Z,94660.59
2018-07-22T09:03:57.539Z,94657.47
2018-07-22T09:06:23.967Z,94657.47
2018-07-22T09:08:50.319Z,94648.78
2018-07-22T09:11:16.638Z,94647.83
2018-07-22T09:13:42.968Z,94649.00
2018-07-22T09:16:09.400Z,94646.47
2018-07-22T09:18:35.897Z,94638.16
2018-07-22T09:21:02.252Z,94634.66
2018-07-22T09:23:28.791Z,94631.11
2018-07-22T09:25:55.207Z,94627.39
2018-07-22T09:28:21.561Z,94628.05
2018-07-22T09:30:47.909Z,94623.34
2018-07-22T09:33:14.262Z,94625.94
2018-07-22T09:35:40.647Z,94629.41
2018-07-22T09:38:06.990Z,94627.81
2018-07-22T09:40:33.364Z,94631.29
2018-07-22T09:42:59.711Z,94628.29
2018-07-22T09:45:26.072Z,94625.22
2018-07-22T09:47:52.434Z,94615.69
2018-07-22T09:50:18.794Z,94610.58
2018-07-22T09:52:45.139Z,94615.21
2018-07-22T09:55:11.470Z,94606.08
2018-07-22T09:57:37.798Z,94597.90
2018-07-22T10:00:04.287Z,94587.54
2018-07-22T10:02:30.674Z,94589.08
2018-07-22T10:04:57.029Z,94584.38
2018-07-22T10:07:23.416Z,94586.02
2018-07-22T10:09:49.764Z,94583.08
2018-07-22T10:12:16.094Z,94583.02
2018-07-22T10:14:42.565Z,94577.36
2018-07-22T10:17:08.848Z,94578.01
2018-07-22T10:19:35.238Z,94574.13
2018-07-22T10:22:01.653Z,94571.05
2018-07-22T10:24:28.008Z,94566.69
2018-07-22T10:26:54.344Z,94560.09
2018-07-22T10:29:20.694Z,94559.74
2018-07-22T10:31:47.042Z,94559.20
2018-07-22T10:34:13.410Z,94555.62
2018-07-22T10:36:39.746Z,94554.60
2018-07-22T10:39:06.120Z,94556.30
2018-07-22T10:41:32.509Z,94548.12
2018-07-22T10:43:58.851Z,94545.78
2018-07-22T10:46:25.216Z,94542.23
2018-07-22T10:48:51.600Z,94541.25
2018-07-22T10:51:17.968Z,94541.59
2018-07-22T10:53:44.366Z,94537.70
2018-07-22T10:56:10.758Z,94539.67
2018-07-22T10:58:37.236Z,94529.22
2018-07-22T11:01:03.583Z,94526.97
2018-07-22T11:03:29.969Z,94520.25
2018-07-22T11:05:56.322Z,94518.65
2018-07-22T11:08:22.693Z,94516.23
2018-07-22T11:10:49.078Z,94521.34
2018-07-22T11:13:15.420Z,94519.47
2018-07-22T11:15:41.749Z,94518.88
2018-07-22T11:18:08.102Z,94507.05
2018-07-22T11:20:34.587Z,94510.80
2018-07-22T11:23:00.947Z,94506.41
2018-07-22T11:25:27.299Z,94498.16
2018-07-22T11:27:53.659Z,94505.79
2018-07-22T11:30:20.156Z,94489.66
2018-07-22T11:32:46.511Z,94489.94
2018-07-22T11:35:12.916Z,94487.10
2018-07-22T11:37:39.232Z,94488.80
2018-07-22T11:40:05.599Z,94488.80
2018-07-22T11:42:32.075Z,94488.73
2018-07-22T11:44:58.430Z,94479.91
2018-07-22T11:47:24.780Z,94475.70
2018-07-22T11:49:51.115Z,94470.86
2018-07-22T11:52:17.452Z,94462.68
2018-07-22T11:54:43.790Z,94464.31
2018-07-22T11:57:10.256Z,94472.19
2018-07-22T11:59:36.612Z,94461.64
2018-07-22T12:02:02.949Z,94456.47
2018-07-22T12:04:29.323Z,94454.38
2018-07-22T12:06:55.788Z,94452.44
2018-07-22T12:09:22.177Z,94443.44
2018-07-22T12:11:48.587Z,94443.36
2018-07-22T12:14:15.051Z,94447.83
2018-07-22T12:16:41.420Z,94447.27
2018-07-22T12:19:07.750Z,94437.55
2018-07-22T12:21:34.184Z,94432.03
2018-07-22T12:24:00.556Z,94435.91
2018-07-22T12:26:26.944Z,94428.57
2018-07-22T12:28:53.361Z,94428.42
2018-07-22T12:31:19.755Z,94426.07
2018-07-22T12:33:46.133Z,94426.22
2018-07-22T12:36:12.468Z,94423.07
2018-07-22T12:38:38.872Z,94416.59
2018-07-22T12:41:05.340Z,94402.74
2018-07-22T12:43:31.729Z,94389.70
2018-07-22T12:45:58.113Z,94382.64
2018-07-22T12:48:24.563Z,94381.34
2018-07-22T12:50:50.890Z,94383.72
2018-07-22T12:53:17.227Z,94370.77
2018-07-22T12:55:43.558Z,94373.36
2018-07-22T12:58:09.936Z,94381.03
2018-07-22T13:00:36.340Z,94376.92
2018-07-22T13:03:02.758Z,94388.52
2018-07-22T13:05:29.163Z,94384.86
2018-07-22T13:07:55.539Z,94381.86
2018-07-22T13:10:21.932Z,94378.38
2018-07-22T13:12:48.260Z,94385.34
2018-07-22T13:15:14.653Z,94391.50
2018-07-22T13:17:40.995Z,94404.23
2018-07-22T13:20:07.376Z,94412.31
2018-07-22T13:22:33.719Z,94420.20
2018-07-22T13:25:00.318Z,94434.87
2018-07-22T13:27:26.713Z,94435.27
2018-07-22T13:29:53.760Z,94426.89
2018-07-22T13:32:20.222Z,94423.41
2018-07-22T13:34:46.556Z,94416.05
2018-07-22T13:37:12.922Z,94418.47
2018-07-22T13:39:39.357Z,94427.00
2018-07-22T13:42:05.820Z,94428.77
2018-07-22T13:44:32.219Z,94432.80
2018-07-22T13:46:58.768Z,94438.73
2018-07-22T13:49:25.097Z,94419.30
2018-07-22T13:51:51.460Z,94417.03
2018-07-22T13:54:17.849Z,94412.41
2018-07-22T13:56:44.461Z,94407.63
2018-07-22T13:59:10.843Z,94404.86
2018-07-22T14:01:37.171Z,94398.63
2018-07-22T14:04:03.660Z,94393.30
2018-07-22T14:06:30.040Z,94385.18
2018-07-22T14:08:56.390Z,94378.93
2018-07-22T14:11:22.769Z,94374.81
2018-07-22T14:13:49.124Z,94365.98
2018-07-22T14:16:15.649Z,94365.73
2018-07-22T14:18:42.078Z,94358.35
2018-07-22T14:21:08.445Z,94362.41
2018-07-22T14:23:34.785Z,94364.44
2018-07-22T14:26:01.283Z,94358.37
2018-07-22T14:28:27.643Z,94348.55
2018-07-22T14:30:54.144Z,94351.89
2018-07-22T14:33:20.576Z,94347.52
2018-07-22T14:35:46.948Z,94348.00
2018-07-22T14:38:13.307Z,94351.48
2018-07-22T14:40:39.720Z,94352.92
2018-07-22T14:43:06.116Z,94357.89
2018-07-22T14:45:32.544Z,94348.89
2018-07-22T14:47:59.185Z,94353.66
2018-07-22T14:50:25.718Z,94349.69
2018-07-22T14:52:52.148Z,94346.45
2018-07-22T14:55:18.516Z,94347.17
2018-07-22T14:57:44.986Z,94352.52
2018-07-22T15:00:11.343Z,94358.20
2018-07-22T15:02:37.740Z,94357.22
2018-07-22T15:05:04.086Z,94356.50
2018-07-22T15:07:30.453Z,94351.32
2018-07-22T15:09:56.955Z,94348.39
2018-07-22T15:12:23.277Z,94350.84
2018-07-22T15:14:49.654Z,94341.58
2018-07-22T15:17:16.011Z,94343.13
2018-07-22T15:19:42.388Z,94344.09
2018-07-22T15:22:08.725Z,94346.14
2018-07-22T15:24:35.194Z,94343.05
2018-07-22T15:27:01.602Z,94342.80
2018-07-22T15:29:28.031Z,94333.80
2018-07-22T15:31:54.367Z,94328.20
2018-07-22T15:34:20.725Z,94326.61
2018-07-22T15:36:47.088Z,94330.73
2018-07-22T15:39:13.474Z,94327.09
2018-07-22T15:41:39.856Z,94323.84
2018-07-22T15:44:06.184Z,94324.25
2018-07-22T15:46:32.562Z,94318.91
2018-07-22T15:48:58.890Z,94325.05
2018-07-22T15:51:25.309Z,94326.02
2018-07-22T15:53:51.712Z,94326.28
2018-07-22T15:56:18.090Z,94331.61
2018-07-22T15:58:44.408Z,94332.61
2018-07-22T16:01:10.806Z,94322.72
2018-07-22T16:03:37.143Z,94330.31
2018-07-22T16:06:03.498Z,94333.39
2018-07-22T16:08:29.903Z,94333.49
2018-07-22T16:10:56.371Z,94331.80
2018-07-22T16:13:22.739Z,94336.50
2018-07-22T16:15:49.238Z,94336.50
2018-07-22T16:18:15.555Z,94337.94
2018-07-22T16:20:41.904Z,94340.05
2018-07-22T16:23:08.344Z,94349.27
2018-07-22T16:25:34.701Z,94350.97
2018-07-22T16:28:01.103Z,94345.48
2018-07-22T16:30:27.457Z,94341.66
2018-07-22T16:32:53.883Z,94343.13
2018-07-22T16:35:20.211Z,94335.75
2018-07-22T16:37:46.543Z,94331.80
2018-07-22T16:40:12.885Z,94326.02
2018-07-22T16:42:39.317Z,94328.13
2018-07-22T16:45:05.816Z,94338.08
2018-07-22T16:47:32.178Z,94346.45
2018-07-22T16:49:58.586Z,94341.34
2018-07-22T16:52:24.915Z,94340.13
2018-07-22T16:54:51.281Z,94345.78
2018-07-22T16:57:17.619Z,94348.86
2018-07-22T16:59:44.024Z,94354.70
2018-07-22T17:02:10.366Z,94349.03
2018-07-22T17:04:36.739Z,94347.09
2018-07-22T17:07:03.071Z,94335.44
2018-07-22T17:09:29.458Z,94344.17
2018-07-22T17:11:55.860Z,94344.98
2018-07-22T17:14:22.284Z,94341.41
2018-07-22T17:16:48.643Z,94343.60
2018-07-22T17:19:15.035Z,94349.00
2018-07-22T17:21:41.407Z,94350.16
2018-07-22T17:24:07.760Z,94348.11
2018-07-22T17:26:34.152Z,94360.02
2018-07-22T17:29:00.505Z,94355.72
2018-07-22T17:31:26.934Z,94362.38
2018-07-22T17:33:53.278Z,94357.43
2018-07-22T17:36:19.655Z,94365.69
2018-07-22T17:38:46.220Z,94366.55
2018-07-22T17:41:12.764Z,94360.89
2018-07-22T17:43:39.123Z,94359.50
2018-07-22T17:46:05.517Z,94359.29
2018-07-22T17:48:32.538Z,94369.73
2018-07-22T17:50:58.877Z,94363.32
2018-07-22T17:53:25.235Z,94367.69
2018-07-22T17:55:51.716Z,94376.03
2018-07-22T17:58:18.102Z,94372.25
2018-07-22T18:00:44.464Z,94365.98
2018-07-22T18:03:10.786Z,94371.41
2018-07-22T18:05:37.193Z,94368.41
2018-07-22T18:08:03.552Z,94362.68
2018-07-22T18:10:29.882Z,94357.70
2018-07-22T18:12:56.212Z,94355.44
2018-07-22T18:15:22.616Z,94357.95
2018-07-22T18:17:49.044Z,94355.63
2018-07-22T18:20:15.539Z,94359.82
2018-07-22T18:22:41.925Z,94362.97
2018-07-22T18:25:08.266Z,94367.00
2018-07-22T18:27:34.720Z,94374.77
2018-07-22T18:30:01.124Z,94381.11
2018-07-22T18:32:27.558Z,94382.24
2018-07-22T18:34:53.910Z,94375.50
2018-07-22T18:37:20.287Z,94392.61
2018-07-22T18:39:46.677Z,94393.49
2018-07-22T18:42:13.110Z,94400.02
2018-07-22T18:44:39.475Z,94398.48
2018-07-22T18:47:05.945Z,94402.06
2018-07-22T18:49:32.348Z,94398.89
2018-07-22T18:51:58.711Z,94403.02
2018-07-22T18:54:25.111Z,94400.45
2018-07-22T18:56:51.513Z,94408.87
2018-07-22T18:59:17.910Z,94414.22
2018-07-22T19:01:44.307Z,94426.77
2018-07-22T19:04:10.773Z,94427.97
2018-07-22T19:06:37.111Z,94433.28
2018-07-22T19:09:03.543Z,94431.92
2018-07-22T19:11:29.894Z,94424.33
2018-07-22T19:13:56.235Z,94435.85
2018-07-22T19:16:22.608Z,94431.67
2018-07-22T19:18:48.962Z,94424.72
2018-07-22T19:21:15.305Z,94425.05
2018-07-22T19:23:41.691Z,94429.25
2018-07-22T19:26:08.095Z,94434.02
2018-07-22T19:28:34.560Z,94442.92
2018-07-22T19:31:00.926Z,94438.28
2018-07-22T19:33:27.314Z,94435.45
2018-07-22T19:35:53.692Z,94448.41
2018-07-22T19:38:20.038Z,94444.42
2018-07-22T19:40:46.389Z,94437.61
2018-07-22T19:43:12.746Z,94436.14
2018-07-22T19:45:39.160Z,94441.09
2018-07-22T19:48:05.547Z,94435.98
2018-07-22T19:50:31.933Z,94430.15
2018-07-22T19:52:58.271Z,94431.41
2018-07-22T19:55:24.741Z,94421.70
2018-07-22T19:57:51.094Z,94416.25
2018-07-22T20:00:17.423Z,94407.50
2018-07-22T20:02:43.763Z,94410.77
2018-07-22T20:05:10.196Z,94404.44
2018-07-22T20:07:36.583Z,94402.80
2018-07-22T20:10:02.931Z,94396.64
2018-07-22T20:12:29.333Z,94397.94
2018-07-22T20:14:55.699Z,94393.70
2018-07-22T20:17:22.065Z,94397.22
2018-07-22T20:19:48.508Z,94393.81
2018-07-22T20:22:14.860Z,94399.39
2018-07-22T20:24:41.259Z,94406.48
2018-07-22T20:27:07.693Z,94407.03
2018-07-22T20:29:34.098Z,94411.32
2018-07-22T20:32:00.460Z,94406.86
2018-07-22T20:34:26.797Z,94400.08
2018-07-22T20:36:53.284Z,94399.09
2018-07-22T20:39:19.615Z,94401.72
2018-07-22T20:41:45.962Z,94411.35
2018-07-22T20:44:12.300Z,94410.64
2018-07-22T20:46:38.653Z,94418.84
2018-07-22T20:49:05.051Z,94422.59
2018-07-22T20:51:31.407Z,94422.73
2018-07-22T20:53:57.755Z,94428.55
2018-07-22T20:56:24.211Z,94428.14
2018-07-22T20:58:50.677Z,94440.03
2018-07-22T21:01:17.058Z,94433.77
2018-07-22T21:03:43.472Z,94432.16
2018-07-22T21:06:09.907Z,94441.91
2018-07-22T21:08:36.269Z,94425.79
2018-07-22T21:11:02.652Z,94435.16
2018-07-22T21:13:28.983Z,94440.74
2018-07-22T21:15:55.339Z,94436.08
2018-07-22T21:18:21.706Z,94435.80
2018-07-22T21:20:48.086Z,94430.86
2018-07-22T21:23:14.478Z,94434.13
2018-07-22T21:25:40.811Z,94435.05
2018-07-22T21:28:07.204Z,94442.30
2018-07-22T21:30:33.571Z,94439.85
2018-07-22T21:32:59.932Z,94452.38
2018-07-22T21:35:26.286Z,94458.96
2018-07-22T21:37:52.751Z,94469.55
2018-07-22T21:40:19.254Z,94467.27
2018-07-22T21:42:45.633Z,94473.05
2018-07-22T21:45:12.029Z,94478.91
2018-07-22T21:47:38.382Z,94478.45
2018-07-22T21:50:04.720Z,94481.59
2018-07-22T21:52:31.110Z,94475.52
2018-07-22T21:54:57.476Z,94479.05
2018-07-22T21:57:23.871Z,94482.55
2018-07-22T21:59:50.203Z,94478.48
2018-07-22T22:02:16.601Z,94487.93
2018-07-22T22:04:42.969Z,94487.25
2018-07-22T22:07:09.351Z,94488.36
2018-07-22T22:09:35.678Z,94488.48
2018-07-22T22:12:02.191Z,94491.20
2018-07-22T22:14:28.654Z,94493.89
2018-07-22T22:16:55.033Z,94501.14
2018-07-22T22:19:21.376Z,94499.72
2018-07-22T22:21:47.777Z,94501.03
2018-07-22T22:24:14.135Z,94504.02
2018-07-22T22:26:40.488Z,94509.07
2018-07-22T22:29:06.836Z,94503.91
2018-07-22T22:31:33.218Z,94507.31
2018-07-22T22:33:59.563Z,94506.08
2018-07-22T22:36:25.930Z,94501.44
2018-07-22T22:38:52.247Z,94493.81
2018-07-22T22:41:18.620Z,94499.15
2018-07-22T22:43:44.956Z,94502.38
2018-07-22T22:46:11.289Z,94497.98
2018-07-22T22:48:37.611Z,94491.20
2018-07-22T22:51:03.969Z,94476.58
2018-07-22T22:53:30.314Z,94470.18
2018-07-22T22:55:56.749Z,94471.11
2018-07-22T22:58:23.188Z,94473.88
2018-07-22T23:00:49.550Z,94480.41
2018-07-22T23:03:15.920Z,94486.53
2018-07-22T23:05:42.256Z,94487.23
2018-07-22T23:08:08.742Z,94491.75
2018-07-22T23:10:35.122Z,94495.28
2018-07-22T23:13:01.507Z,94486.17
2018-07-22T23:15:27.839Z,94485.05
2018-07-22T23:17:54.215Z,94479.59
2018-07-22T23:20:20.574Z,94480.88
2018-07-22T23:22:46.924Z,94475.71
2018-07-22T23:25:13.318Z,94470.88
2018-07-22T23:27:39.664Z,94471.02
2018-07-22T23:30:06.030Z,94465.50
2018-07-22T23:32:32.366Z,94466.75
2018-07-22T23:34:58.714Z,94465.26
2018-07-22T23:37:25.058Z,94462.45
2018-07-22T23:39:51.491Z,94459.41
2018-07-22T23:42:17.824Z,94462.75
2018-07-22T23:44:44.187Z,94470.92
2018-07-22T23:47:10.515Z,94465.70
2018-07-22T23:49:36.871Z,94461.00
2018-07-22T23:52:03.206Z,94459.58
2018-07-22T23:54:29.577Z,94460.52
2018-07-22T23:56:55.948Z,94448.20
2018-07-22T23:59:22.313Z,94446.13
